AirNav   Air Wisconsin Up To $57,000 Bonus
 
 1077 users online  

PA88 Nemacolin Airport
Farmington, Pennsylvania, USA

GOING TO FARMINGTON?


FAA INFORMATION EFFECTIVE 16 JUNE 2022

Location

FAA Identifier: PA88
Lat/Long: 39-48-26.5550N 079-32-51.1350W
39-48.442583N 079-32.852250W
39.8073764,-79.5475375
(estimated)
Elevation: 1995 ft. / 608 m (estimated)
Variation: 08W (1985)
From city: 1 mile E of FARMINGTON, PA
Time zone: UTC -4 (UTC -5 during Standard Time)
Zip code: 15437

Airport Operations

Airport use: Private use. Permission required prior to landing
Activation date: 12/1969
Control tower: no
ARTCC: CLEVELAND CENTER
FSS: ALTOONA FLIGHT SERVICE STATION
Attendance: UNATNDD
Wind indicator: yes
Segmented circle: no
Lights: ACTIVATE MIRL RY 05/23 - 123.0.
Beacon: white-green (lighted land airport)
FOR ROTG BCN, PHONE 724-329-8555.

Airport Communications

UNICOM: 123.0
WX AWOS-3P at VVS (10 nm NW): 133.325 (724-626-8745)
WX AWOS-3 at 2G4 (17 nm SE): 120.125 (301-746-8443)
WX ASOS at MGW (20 nm SW): 120.675 (304-296-7103)

Airport Services

Airframe service: NONE
Powerplant service: NONE

Runway Information

Runway 5/23

Dimensions: 3845 x 50 ft. / 1172 x 15 m
Surface: asphalt
Runway edge lights: medium intensity
RUNWAY 5  RUNWAY 23
Latitude: 39-48.200667N39-48.684500N
Longitude: 079-33.116833W079-32.587667W
Elevation: 1995.0 ft.1986.0 ft.
Traffic pattern: leftleft
Runway heading: 048 magnetic, 040 true228 magnetic, 220 true
Displaced threshold: no140 ft.

Airport Ownership and Management from official FAA records

Ownership: Privately-owned
Owner: NEMACOLIN WOODLANDS INC
1001 LAFAYETTE DRIVE
FARMINGTON, PA 15437
Phone 724-329-6121
Manager: KEVIN FRANK
1001 LAFAYETTE DRIVE
FARMINGTON, PA 15437
Phone (724) 329-6121

Additional Remarks

FOR CD CTC CLARKSBURG APCH AT 304-842-2011, WHEN APCH CLSD CTC CLEVELAND ARTCC AT 440-774-0226.

Instrument Procedures

There are no published instrument procedures at PA88.

Some nearby airports with instrument procedures:

KVVS - Joseph A Hardy Connellsville Airport (10 nm NW)
2G4 - Garrett County Airport (17 nm SE)
KMGW - Morgantown Municipal Airport-Walter L. Bill Hart Field (20 nm SW)
KFWQ - Rostraver Airport (27 nm NW)
KWAY - Greene County Airport (27 nm W)
 
Loc | Ops | Rwys | IFR | FBO | Links
Com | Nav | Svcs | Stats | Notes
Area around PA88 (Nemacolin Airport)
 
Road maps at: MapQuest Bing Google
 
Aerial photo
WARNING: Photo may not be current or correct
Aerial photo of PA88 (Nemacolin Airport)
Photo by Don MacLennan
Photo taken 29-Jun-2019
looking southwest.

Do you have a better or more recent aerial photo of Nemacolin Airport that you would like to share? If so, please send us your photo.

 
Sectional chart

 
Airport distance calculator
Flying to Nemacolin Airport? Find the distance to fly.

From to PA88

Sunrise and sunset
Times for 26-Jun-2022
 Local
(UTC-4)
 Zulu
(UTC)
Morning civil twilight05:2009:20
Sunrise05:5309:53
Sunset20:4900:49
Evening civil twilight21:2201:22

Current date and time
Zulu (UTC)  26-Jun-2022 20:57:03
Local (UTC-4)  26-Jun-2022 16:57:03
 
METAR
KVVS 
10nm NW 
262035Z AUTO 22007KT 10SM SCT033 BKN049 BKN095 27/21 A3004 RMK AO2 T02730206
K2G4 
17nm SE 
262015Z AUTO 21008KT 10SM SCT016 SCT033 BKN110 21/18 A3012 RMK AO1
KMGW 
19nm SW 
262053Z 18004KT 10SM FEW024 SCT035 BKN120 26/21 A3004 RMK AO2 RAB30E45 SLP161 P0000 60000 T02610211 55012
TAF
KMGW 
19nm SW 
261720Z 2618/2718 21006KT P6SM SCT100 FM262100 21007KT 6SM -SHRA BR BKN045 TEMPO 2621/2701 4SM TSRA BR OVC025CB FM270300 22004KT 6SM -SHRA BR OVC035 FM270800 30004KT P6SM OVC025 FM271100 VRB02KT P6SM SCT035
NOTAMs
Click for the latest NOTAMs
NOTAMs are issued by the DoD/FAA and will open in a separate window not controlled by AirNav.

 

 
 

Would you like to see your business listed on this page?

 If your business provides an interesting product or service to pilots, flight crews, aircraft, or users of the Nemacolin Airport, you should consider listing it here.  To start the listing process, click on the button below
 
Add a business
 

Other Pages about Nemacolin Airport

www.nemacolin.com/airfield
 
Update a link
 
Copyright © AirNav, LLC. All rights reserved. Privacy Policy  Contact